Time;durP1;ratioP1;P1;durP2;ratioP2;P2;SDS_P1;SDS_P2;PMS_P1;PMS_P2;Temp;Humidity;BMP_temperature;BMP_pressure;BME280_temperature;BME280_humidity;BME280_pressure;Samples;Min_cycle;Max_cycle;Signal;HPM_P1;HPM_P2
2024/01/24 00:00:08;;;;;;;13.27;2.93;;;12.10;99.90;;;;;;5041800;28;20192;-80
2024/01/24 00:02:33;;;;;;;12.60;2.97;;;12.10;99.90;;;;;;5038997;28;20176;-80
2024/01/24 00:04:59;;;;;;;14.80;3.33;;;12.10;99.90;;;;;;5039880;28;20276;-80
2024/01/24 00:07:25;;;;;;;9.03;2.90;;;12.10;99.90;;;;;;5039538;28;20569;-80
2024/01/24 00:09:51;;;;;;;12.33;3.03;;;12.10;99.90;;;;;;5042005;28;20267;-80
2024/01/24 00:12:16;;;;;;;12.70;3.37;;;12.10;99.90;;;;;;5041072;28;20200;-81
2024/01/24 00:14:42;;;;;;;11.53;2.93;;;12.10;99.90;;;;;;5039781;28;20530;-80
2024/01/24 00:17:07;;;;;;;15.70;3.67;;;12.10;99.90;;;;;;5044201;28;20684;-81
2024/01/24 00:19:33;;;;;;;12.83;3.00;;;12.10;99.90;;;;;;5042500;28;20173;-79
2024/01/24 00:21:59;;;;;;;10.03;2.80;;;12.20;99.90;;;;;;5042618;28;20242;-81
2024/01/24 00:24:25;;;;;;;10.13;2.67;;;12.20;99.90;;;;;;5043321;28;20177;-81
2024/01/24 00:26:50;;;;;;;12.07;2.43;;;12.30;99.90;;;;;;5042932;28;20184;-80
2024/01/24 00:29:16;;;;;;;11.77;2.90;;;12.20;99.90;;;;;;5040229;28;20184;-81
2024/01/24 00:31:41;;;;;;;9.80;2.60;;;12.30;99.90;;;;;;5040550;28;20200;-81
2024/01/24 00:34:07;;;;;;;7.27;2.10;;;12.30;99.90;;;;;;5040944;28;20208;-80
2024/01/24 00:36:32;;;;;;;5.77;2.50;;;12.40;99.90;;;;;;5040975;28;20255;-80
2024/01/24 00:38:58;;;;;;;8.20;2.53;;;12.40;99.90;;;;;;5040351;28;20226;-80
2024/01/24 00:41:23;;;;;;;7.47;2.60;;;12.30;99.90;;;;;;5039912;28;20196;-81
2024/01/24 00:43:49;;;;;;;8.67;2.90;;;12.30;99.90;;;;;;5040961;28;20184;-80
2024/01/24 00:46:14;;;;;;;10.77;2.37;;;12.40;99.90;;;;;;5038377;28;20238;-80
2024/01/24 00:48:40;;;;;;;8.43;2.40;;;12.40;99.90;;;;;;5040899;28;20180;-79
2024/01/24 00:51:05;;;;;;;7.53;2.63;;;12.50;99.90;;;;;;5039865;28;20203;-79
2024/01/24 00:53:34;;;;;;;7.27;2.50;;;12.50;99.90;;;;;;5042926;28;20215;-80
2024/01/24 00:56:00;;;;;;;6.80;2.00;;;12.60;99.90;;;;;;5044983;28;20219;-80
2024/01/24 00:58:25;;;;;;;9.63;2.77;;;12.60;99.90;;;;;;5044370;28;20184;-80
2024/01/24 01:00:51;;;;;;;7.20;2.20;;;12.50;99.90;;;;;;5038081;28;20200;-80
2024/01/24 01:03:16;;;;;;;5.83;2.27;;;12.60;99.90;;;;;;5038853;28;20180;-80
2024/01/24 01:05:42;;;;;;;8.27;2.30;;;12.60;99.90;;;;;;5036955;28;20176;-80
2024/01/24 01:08:07;;;;;;;9.57;2.70;;;12.60;99.90;;;;;;5038134;28;20219;-78
2024/01/24 01:10:33;;;;;;;9.10;2.00;;;12.60;99.90;;;;;;5038991;28;20219;-80
2024/01/24 01:12:59;;;;;;;5.23;1.83;;;12.60;99.90;;;;;;5037697;28;20646;-80
2024/01/24 01:15:25;;;;;;;5.53;2.00;;;12.60;99.90;;;;;;5037491;28;20195;-80
2024/01/24 01:17:51;;;;;;;3.30;1.90;;;12.70;99.90;;;;;;5038940;28;20184;-80
2024/01/24 01:20:19;;;;;;;6.40;2.20;;;12.60;99.90;;;;;;5038780;28;20199;-79
2024/01/24 01:22:45;;;;;;;6.23;1.83;;;12.70;99.90;;;;;;5036944;28;20190;-80
2024/01/24 01:25:11;;;;;;;4.67;1.67;;;12.70;99.90;;;;;;5037502;28;20179;-80
2024/01/24 01:27:37;;;;;;;6.00;2.10;;;12.70;99.90;;;;;;5037883;28;20172;-78
2024/01/24 01:30:04;;;;;;;7.70;1.97;;;12.80;99.90;;;;;;5036909;28;20210;-79
2024/01/24 01:32:29;;;;;;;5.43;1.60;;;12.80;99.90;;;;;;5039223;28;20176;-80
2024/01/24 01:34:55;;;;;;;5.43;1.50;;;12.80;99.90;;;;;;5036259;28;20196;-80
2024/01/24 01:37:23;;;;;;;7.37;1.70;;;12.90;99.90;;;;;;5036786;28;20196;-80
2024/01/24 01:39:50;;;;;;;5.63;1.77;;;13.00;99.90;;;;;;5038439;28;20261;-80
2024/01/24 01:42:15;;;;;;;3.23;1.40;;;13.00;99.90;;;;;;5039155;28;20214;-80
2024/01/24 01:44:46;;;;;;;3.23;1.37;;;13.10;99.90;;;;;;5039255;28;20173;-80
2024/01/24 01:47:13;;;;;;;6.83;1.77;;;13.10;99.90;;;;;;5039104;28;20218;-80
2024/01/24 01:49:39;;;;;;;4.60;1.40;;;13.10;99.90;;;;;;5037443;28;20185;-78
2024/01/24 01:52:05;;;;;;;6.33;1.73;;;13.20;99.90;;;;;;5036352;28;20361;-79
2024/01/24 01:54:31;;;;;;;3.40;1.23;;;13.30;99.90;;;;;;5035832;28;20184;-78
2024/01/24 01:56:57;;;;;;;4.27;1.50;;;13.40;99.90;;;;;;5036831;28;20204;-79
2024/01/24 01:59:24;;;;;;;4.10;1.60;;;13.40;99.90;;;;;;5041258;28;20191;-79
2024/01/24 02:01:51;;;;;;;2.10;1.10;;;13.40;99.90;;;;;;5041885;28;20192;-80
2024/01/24 02:04:17;;;;;;;3.40;1.23;;;13.60;99.90;;;;;;5041876;28;20172;-79
2024/01/24 02:06:43;;;;;;;3.70;1.47;;;13.40;99.90;;;;;;5041237;28;20191;-80
2024/01/24 02:09:10;;;;;;;4.17;1.27;;;13.50;99.90;;;;;;5040531;28;20212;-78
2024/01/24 02:11:35;;;;;;;3.67;1.20;;;13.50;99.90;;;;;;5038400;28;20200;-79
2024/01/24 02:14:01;;;;;;;5.87;1.17;;;13.50;99.90;;;;;;5038516;28;20176;-79
2024/01/24 02:16:27;;;;;;;1.73;1.00;;;13.50;99.90;;;;;;5037089;28;20196;-79
2024/01/24 02:18:53;;;;;;;3.53;1.10;;;13.70;99.90;;;;;;5040200;28;20180;-79
2024/01/24 02:21:18;;;;;;;1.87;1.00;;;13.60;99.90;;;;;;5039701;28;20191;-79
2024/01/24 02:23:45;;;;;;;3.43;1.00;;;13.70;99.90;;;;;;5041587;28;20172;-78
2024/01/24 02:26:11;;;;;;;3.73;0.90;;;13.80;99.90;;;;;;5040347;28;20176;-77
2024/01/24 02:28:36;;;;;;;2.97;1.60;;;13.90;99.90;;;;;;5040324;28;20559;-80
2024/01/24 02:31:02;;;;;;;2.23;0.93;;;13.80;99.90;;;;;;5039645;28;20535;-78
2024/01/24 02:33:27;;;;;;;2.30;1.00;;;13.80;99.90;;;;;;5040494;28;20674;-79
2024/01/24 02:35:53;;;;;;;1.70;0.77;;;13.80;99.90;;;;;;5039304;28;20200;-79
2024/01/24 02:38:18;;;;;;;4.57;1.13;;;13.90;99.90;;;;;;5039573;28;20569;-80
2024/01/24 02:40:44;;;;;;;2.37;0.90;;;13.80;99.90;;;;;;5041635;28;20206;-79
2024/01/24 02:43:09;;;;;;;1.27;0.80;;;13.70;99.90;;;;;;5041165;28;20181;-79
2024/01/24 02:45:35;;;;;;;2.57;0.93;;;13.70;99.90;;;;;;5039236;28;20184;-79
2024/01/24 02:48:00;;;;;;;1.13;0.70;;;13.80;99.90;;;;;;5039300;28;20635;-79
2024/01/24 02:50:27;;;;;;;3.20;0.93;;;13.80;99.90;;;;;;5041391;28;20188;-79
2024/01/24 02:52:53;;;;;;;1.93;0.73;;;13.80;99.90;;;;;;5042076;28;20169;-80
2024/01/24 02:55:18;;;;;;;2.70;0.80;;;13.70;99.90;;;;;;5043189;28;20184;-79
2024/01/24 02:57:44;;;;;;;2.53;0.73;;;13.70;99.90;;;;;;5042547;28;20529;-79
2024/01/24 03:00:12;;;;;;;2.73;1.00;;;13.60;99.90;;;;;;5043749;28;20582;-80
2024/01/24 03:02:38;;;;;;;1.67;0.80;;;13.60;99.90;;;;;;5041540;28;20172;-80
2024/01/24 03:05:05;;;;;;;1.60;0.80;;;13.60;99.90;;;;;;5042348;28;20176;-80
2024/01/24 03:07:31;;;;;;;1.60;0.90;;;13.50;99.90;;;;;;5043339;28;20306;-80
2024/01/24 03:09:57;;;;;;;1.50;0.73;;;13.50;99.90;;;;;;5045070;28;20181;-78
2024/01/24 03:12:22;;;;;;;1.80;0.60;;;13.40;99.90;;;;;;5048678;28;20259;-79
2024/01/24 03:14:48;;;;;;;1.50;0.73;;;13.40;99.90;;;;;;5039718;28;20180;-80
2024/01/24 03:17:13;;;;;;;3.40;0.87;;;13.40;99.90;;;;;;5039684;28;20227;-80
2024/01/24 03:19:39;;;;;;;1.43;0.90;;;13.40;99.90;;;;;;5039073;28;20176;-78
2024/01/24 03:22:04;;;;;;;3.37;0.90;;;13.40;99.90;;;;;;5039935;28;20193;-80
2024/01/24 03:24:30;;;;;;;3.80;0.70;;;13.30;99.90;;;;;;5039769;28;20295;-79
2024/01/24 03:26:55;;;;;;;0.90;0.80;;;13.30;99.90;;;;;;5038262;28;20192;-80
2024/01/24 03:29:21;;;;;;;1.70;0.70;;;13.40;99.90;;;;;;5039477;28;20186;-79
2024/01/24 03:31:47;;;;;;;2.67;0.70;;;13.30;99.90;;;;;;5048059;28;20231;-79
2024/01/24 03:34:12;;;;;;;1.63;0.73;;;13.40;99.90;;;;;;5058932;28;20199;-80
2024/01/24 03:36:38;;;;;;;2.53;0.83;;;13.40;99.90;;;;;;5059606;28;20298;-79
2024/01/24 03:39:03;;;;;;;0.37;0.37;;;13.30;99.90;;;;;;5057768;28;20222;-78
2024/01/24 03:41:29;;;;;;;1.80;0.63;;;13.20;99.90;;;;;;5057178;28;20651;-79
2024/01/24 03:43:55;;;;;;;0.80;0.50;;;13.20;99.90;;;;;;5058492;28;20215;-79
2024/01/24 03:46:21;;;;;;;2.30;0.60;;;13.20;99.90;;;;;;5058240;28;20176;-78
2024/01/24 03:48:47;;;;;;;1.37;0.60;;;13.20;99.90;;;;;;5058153;28;20191;-79
2024/01/24 03:51:12;;;;;;;0.63;0.63;;;13.20;99.90;;;;;;5058532;28;20310;-79
2024/01/24 03:53:38;;;;;;;1.60;0.50;;;13.10;99.90;;;;;;5060650;28;20175;-79
2024/01/24 03:56:05;;;;;;;1.03;0.70;;;13.00;99.90;;;;;;5056285;28;20215;-77
2024/01/24 03:58:31;;;;;;;2.03;0.80;;;13.00;99.90;;;;;;5058337;28;20180;-79
2024/01/24 04:00:57;;;;;;;0.90;0.60;;;12.90;99.90;;;;;;5060262;28;20211;-78
2024/01/24 04:03:23;;;;;;;3.47;0.67;;;12.90;99.90;;;;;;5059888;28;20251;-78
2024/01/24 04:05:48;;;;;;;2.40;0.50;;;12.90;99.90;;;;;;5054989;28;20172;-79
2024/01/24 04:08:14;;;;;;;1.00;0.50;;;12.90;99.90;;;;;;5038894;28;20177;-78
2024/01/24 04:10:39;;;;;;;1.03;0.60;;;12.90;99.90;;;;;;5058727;28;20214;-79
2024/01/24 04:13:05;;;;;;;2.27;0.50;;;12.90;99.90;;;;;;5061288;28;20243;-79
2024/01/24 04:15:30;;;;;;;0.77;0.60;;;12.90;99.90;;;;;;5056963;28;20196;-77
2024/01/24 04:17:56;;;;;;;0.30;0.30;;;12.90;99.90;;;;;;5039181;28;20215;-79
2024/01/24 04:20:22;;;;;;;0.80;0.40;;;13.00;99.90;;;;;;5037215;28;20204;-77
2024/01/24 04:22:48;;;;;;;0.70;0.50;;;13.10;99.90;;;;;;5039633;28;20180;-78
2024/01/24 04:25:14;;;;;;;0.63;0.40;;;13.10;99.90;;;;;;5039477;28;20180;-80
2024/01/24 04:27:39;;;;;;;1.87;0.57;;;13.10;99.90;;;;;;5057115;28;20187;-79
2024/01/24 04:30:05;;;;;;;2.73;0.40;;;13.10;99.90;;;;;;5039560;28;20208;-79
2024/01/24 04:32:31;;;;;;;0.53;0.40;;;13.00;99.90;;;;;;5039866;28;20194;-80
2024/01/24 04:34:57;;;;;;;0.73;0.50;;;13.20;99.90;;;;;;5041728;28;20678;-79
2024/01/24 04:37:23;;;;;;;0.90;0.47;;;13.00;99.90;;;;;;5054706;28;20206;-79
2024/01/24 04:39:49;;;;;;;0.80;0.50;;;13.10;99.90;;;;;;5061432;28;20182;-79
2024/01/24 04:42:15;;;;;;;7.13;0.60;;;13.10;99.90;;;;;;5061828;28;20246;-78
2024/01/24 04:44:40;;;;;;;0.30;0.30;;;13.10;99.90;;;;;;5057821;28;20655;-79
2024/01/24 04:47:06;;;;;;;0.40;0.30;;;13.20;99.90;;;;;;5059141;28;20195;-79
2024/01/24 04:49:31;;;;;;;2.83;0.40;;;13.60;99.90;;;;;;5060029;28;20179;-78
2024/01/24 04:51:57;;;;;;;1.40;0.60;;;13.70;99.90;;;;;;5058046;28;20203;-79
2024/01/24 04:54:22;;;;;;;2.37;0.50;;;13.10;99.90;;;;;;5041057;28;20671;-78
2024/01/24 04:56:48;;;;;;;3.40;0.50;;;13.00;99.90;;;;;;5048449;28;20263;-78
2024/01/24 04:59:15;;;;;;;2.00;0.60;;;12.90;99.90;;;;;;5058564;28;20175;-79
2024/01/24 05:01:41;;;;;;;4.23;1.17;;;12.80;99.90;;;;;;5058715;28;20270;-77
2024/01/24 05:04:07;;;;;;;5.97;0.83;;;12.80;99.90;;;;;;5053656;28;20173;-78
2024/01/24 05:06:33;;;;;;;3.73;1.00;;;12.80;99.90;;;;;;5043994;28;20179;-78
2024/01/24 05:08:58;;;;;;;6.60;1.00;;;12.70;99.90;;;;;;5058289;28;20179;-79
2024/01/24 05:11:24;;;;;;;6.03;1.70;;;12.80;99.90;;;;;;5058318;28;20191;-78
2024/01/24 05:13:49;;;;;;;6.30;1.60;;;12.80;99.90;;;;;;5055830;28;20175;-78
2024/01/24 05:16:15;;;;;;;11.43;1.93;;;12.80;99.90;;;;;;5053693;28;20203;-76
2024/01/24 05:18:41;;;;;;;8.73;1.60;;;12.80;99.90;;;;;;5041007;28;20230;-78
2024/01/24 05:21:06;;;;;;;9.13;2.30;;;12.80;99.90;;;;;;5040034;28;20644;-79
2024/01/24 05:23:32;;;;;;;11.43;2.50;;;12.80;99.90;;;;;;5042515;28;20232;-79
2024/01/24 05:25:58;;;;;;;11.40;2.40;;;12.70;99.90;;;;;;5041553;28;20176;-79
2024/01/24 05:28:23;;;;;;;9.57;2.03;;;12.90;99.90;;;;;;5045021;28;20183;-80
2024/01/24 05:30:49;;;;;;;11.23;2.50;;;12.90;99.90;;;;;;5039422;28;20209;-79
2024/01/24 05:33:14;;;;;;;8.47;2.27;;;12.90;99.90;;;;;;5053864;28;20270;-79
2024/01/24 05:35:41;;;;;;;9.53;1.90;;;12.90;99.90;;;;;;5059793;28;20187;-79
2024/01/24 05:38:06;;;;;;;12.37;2.33;;;12.80;99.90;;;;;;5053957;28;20184;-81
2024/01/24 05:40:32;;;;;;;10.77;2.63;;;12.80;99.90;;;;;;5057132;28;20195;-82
2024/01/24 05:42:57;;;;;;;8.63;2.00;;;12.80;99.90;;;;;;5048163;28;20219;-81
2024/01/24 05:45:23;;;;;;;12.67;3.63;;;12.80;99.90;;;;;;5040363;28;20180;-81
2024/01/24 05:47:48;;;;;;;8.43;2.20;;;12.80;99.90;;;;;;5039627;28;20271;-82
2024/01/24 05:50:15;;;;;;;15.03;2.30;;;12.80;99.90;;;;;;5037669;28;20282;-82
2024/01/24 05:52:44;;;;;;;9.57;2.53;;;12.80;99.90;;;;;;5039495;28;20177;-81
2024/01/24 05:55:11;;;;;;;10.67;2.60;;;12.70;99.90;;;;;;5039170;28;20184;-80
2024/01/24 05:57:39;;;;;;;9.83;2.30;;;12.70;99.90;;;;;;5040747;28;20199;-81
2024/01/24 06:00:08;;;;;;;10.73;2.40;;;12.60;99.90;;;;;;5039045;28;20549;-79
2024/01/24 06:02:35;;;;;;;9.67;2.97;;;12.80;99.90;;;;;;5040540;28;20169;-79
2024/01/24 06:05:01;;;;;;;15.13;2.93;;;12.80;99.90;;;;;;5040662;28;20181;-80
2024/01/24 06:07:26;;;;;;;10.77;2.37;;;12.90;99.90;;;;;;5040257;28;20267;-81
2024/01/24 06:09:52;;;;;;;10.90;2.47;;;12.80;99.90;;;;;;5040412;28;20238;-81
2024/01/24 06:12:17;;;;;;;8.00;2.20;;;12.80;99.90;;;;;;5039662;28;20181;-79
2024/01/24 06:14:43;;;;;;;11.17;2.80;;;12.90;99.90;;;;;;5041240;28;20172;-80
2024/01/24 06:17:08;;;;;;;11.67;3.50;;;12.90;99.90;;;;;;5040504;28;20200;-81
2024/01/24 06:19:34;;;;;;;11.13;2.60;;;12.90;99.90;;;;;;5040195;28;20168;-80
2024/01/24 06:22:00;;;;;;;14.53;3.33;;;13.00;99.90;;;;;;5038604;28;20196;-80
2024/01/24 06:24:25;;;;;;;12.60;3.37;;;13.00;99.90;;;;;;5039526;28;20652;-82
2024/01/24 06:26:51;;;;;;;12.30;2.67;;;13.10;99.90;;;;;;5039663;28;20272;-81
2024/01/24 06:29:18;;;;;;;19.83;3.43;;;12.90;99.90;;;;;;5039292;28;20188;-82
2024/01/24 06:31:45;;;;;;;19.07;3.17;;;12.90;99.90;;;;;;5039098;28;20737;-81
2024/01/24 06:34:12;;;;;;;15.07;3.53;;;12.80;99.90;;;;;;5041139;28;20192;-81
2024/01/24 06:36:38;;;;;;;15.90;3.53;;;12.80;99.90;;;;;;5040262;28;20326;-81
2024/01/24 06:39:06;;;;;;;17.40;3.27;;;12.70;99.90;;;;;;5038950;28;20666;-82
2024/01/24 06:41:31;;;;;;;17.27;3.60;;;12.70;99.90;;;;;;5040551;28;20216;-82
2024/01/24 06:43:57;;;;;;;20.47;3.37;;;12.70;99.90;;;;;;5039506;28;20181;-81
2024/01/24 06:46:27;;;;;;;15.70;3.13;;;12.70;99.90;;;;;;5036941;28;20180;-82
2024/01/24 06:48:52;;;;;;;14.60;3.30;;;12.70;99.90;;;;;;5040402;28;20184;-82
2024/01/24 06:51:18;;;;;;;14.67;3.87;;;12.60;99.90;;;;;;5040115;28;20200;-81
2024/01/24 06:53:44;;;;;;;17.37;4.20;;;12.70;99.90;;;;;;5043112;28;20199;-80
2024/01/24 06:56:09;;;;;;;15.37;3.07;;;12.70;99.90;;;;;;5041119;28;20199;-80
2024/01/24 06:58:37;;;;;;;19.83;3.70;;;12.60;99.90;;;;;;5035917;28;20195;-79
2024/01/24 07:01:03;;;;;;;21.57;4.00;;;12.60;99.90;;;;;;5034995;28;20330;-80
2024/01/24 07:03:28;;;;;;;16.17;4.10;;;12.60;99.90;;;;;;5033822;28;20192;-79
2024/01/24 07:05:54;;;;;;;26.23;4.77;;;12.70;99.90;;;;;;5034376;28;20260;-80
2024/01/24 07:08:19;;;;;;;15.80;3.50;;;12.60;99.90;;;;;;5042137;28;20181;-80
2024/01/24 07:10:45;;;;;;;19.33;4.50;;;12.70;99.90;;;;;;5039654;28;20200;-81
2024/01/24 07:13:10;;;;;;;23.83;4.97;;;12.60;99.90;;;;;;5038896;28;20198;-81
2024/01/24 07:15:36;;;;;;;24.93;5.73;;;12.60;92.60;;;;;;5038138;28;20179;-80
2024/01/24 07:18:01;;;;;;;18.47;4.60;;;12.60;98.50;;;;;;5037973;28;20200;-81
2024/01/24 07:20:27;;;;;;;24.47;4.93;;;12.50;99.90;;;;;;5037870;28;20196;-81
2024/01/24 07:22:53;;;;;;;20.00;4.60;;;12.50;79.50;;;;;;5037867;28;20204;-80
2024/01/24 07:25:19;;;;;;;24.80;4.67;;;12.50;78.60;;;;;;5037568;28;20176;-80
2024/01/24 07:27:45;;;;;;;17.77;4.40;;;12.60;34.80;;;;;;5038326;28;20180;-79
2024/01/24 07:30:11;;;;;;;25.17;5.50;;;12.80;29.30;;;;;;5040804;28;20294;-80
2024/01/24 07:32:39;;;;;;;22.80;5.43;;;12.60;12.20;;;;;;5043422;28;20695;-79
2024/01/24 07:35:05;;;;;;;27.67;6.23;;;12.60;12.50;;;;;;5044944;28;20196;-79
2024/01/24 07:37:31;;;;;;;23.93;5.90;;;12.50;63.30;;;;;;5037646;28;20200;-80
2024/01/24 07:39:57;;;;;;;23.17;5.43;;;12.50;99.90;;;;;;5038825;28;20245;-80
2024/01/24 07:42:22;;;;;;;24.53;5.23;;;12.40;99.90;;;;;;5038070;28;20176;-80
2024/01/24 07:44:48;;;;;;;26.23;5.77;;;12.30;99.90;;;;;;5039115;28;20214;-78
2024/01/24 07:47:14;;;;;;;34.73;5.70;;;12.10;99.90;;;;;;5039087;28;20168;-79
2024/01/24 07:49:39;;;;;;;28.70;6.20;;;12.00;99.90;;;;;;5038782;28;20648;-79
2024/01/24 07:52:05;;;;;;;36.07;7.03;;;11.90;99.90;;;;;;5036366;28;20700;-79
2024/01/24 07:54:31;;;;;;;26.43;6.93;;;11.80;99.90;;;;;;5036521;28;20183;-79
2024/01/24 07:56:56;;;;;;;27.20;6.03;;;11.80;99.90;;;;;;5036963;28;20196;-79
2024/01/24 07:59:22;;;;;;;27.60;6.10;;;11.80;99.90;;;;;;5036379;28;20268;-80
2024/01/24 08:01:47;;;;;;;31.83;7.03;;;11.80;99.90;;;;;;5036562;28;20196;-78
2024/01/24 08:04:14;;;;;;;26.73;6.83;;;11.90;34.40;;;;;;5036766;28;20181;-80
2024/01/24 08:06:41;;;;;;;32.13;6.27;;;11.90;10.90;;;;;;5041766;28;20199;-79
2024/01/24 08:09:06;;;;;;;30.40;7.23;;;12.00;1.00;;;;;;5046318;28;20184;-79
2024/01/24 08:11:32;;;;;;;25.93;6.07;;;11.90;1.00;;;;;;5046950;28;20253;-79
2024/01/24 08:13:58;;;;;;;21.20;6.63;;;12.00;1.00;;;;;;5048131;28;20175;-79
2024/01/24 08:16:23;;;;;;;25.40;5.73;;;12.00;1.00;;;;;;5048560;28;20216;-78
2024/01/24 08:18:49;;;;;;;23.57;6.03;;;12.00;1.00;;;;;;5045737;28;20267;-78
2024/01/24 08:21:15;;;;;;;27.13;7.10;;;12.00;1.00;;;;;;5046137;28;20206;-79
2024/01/24 08:23:41;;;;;;;22.87;5.30;;;12.00;99.90;;;;;;5048618;28;20168;-77
2024/01/24 08:26:09;;;;;;;25.57;6.00;;;12.00;99.90;;;;;;5044721;28;20184;-79
2024/01/24 08:28:34;;;;;;;32.93;6.57;;;12.10;99.90;;;;;;5047511;28;20187;-79
2024/01/24 08:31:00;;;;;;;22.00;5.63;;;12.10;99.90;;;;;;5047809;28;20200;-79
2024/01/24 08:33:25;;;;;;;21.67;5.57;;;12.00;99.90;;;;;;5046777;28;20192;-78
2024/01/24 08:35:51;;;;;;;24.40;5.70;;;12.00;99.90;;;;;;5046597;28;20184;-78
2024/01/24 08:38:16;;;;;;;18.70;4.90;;;12.00;99.90;;;;;;5048576;28;20173;-79
2024/01/24 08:40:42;;;;;;;25.07;5.80;;;12.00;99.90;;;;;;5046228;28;20500;-78
2024/01/24 08:43:09;;;;;;;25.33;6.17;;;12.00;99.90;;;;;;5045894;28;20176;-79
2024/01/24 08:45:34;;;;;;;20.60;5.27;;;12.00;99.90;;;;;;5039845;28;20172;-78
2024/01/24 08:48:00;;;;;;;31.73;5.63;;;12.10;99.90;;;;;;5036995;28;20218;-79
2024/01/24 08:50:26;;;;;;;27.73;5.50;;;12.10;99.90;;;;;;5036638;28;20196;-79
2024/01/24 08:52:52;;;;;;;24.70;5.73;;;12.10;99.90;;;;;;5035419;28;20180;-79
2024/01/24 08:55:18;;;;;;;26.73;6.17;;;12.10;1.00;;;;;;5034979;28;20176;-79
2024/01/24 08:57:43;;;;;;;29.03;5.30;;;12.10;1.00;;;;;;5036447;28;20406;-79
2024/01/24 09:00:11;;;;;;;27.57;6.17;;;12.10;1.00;;;;;;5036894;28;20241;-79
2024/01/24 09:02:37;;;;;;;32.50;6.03;;;12.00;1.00;;;;;;5037661;28;20612;-79
2024/01/24 09:05:03;;;;;;;25.30;5.47;;;12.00;1.00;;;;;;5035431;28;20180;-79
2024/01/24 09:07:29;;;;;;;29.47;6.13;;;12.00;1.00;;;;;;5035098;28;20199;-79
2024/01/24 09:09:54;;;;;;;27.57;4.67;;;12.00;1.00;;;;;;5036172;28;20180;-79
2024/01/24 09:12:20;;;;;;;22.20;5.27;;;12.00;99.90;;;;;;5043175;28;20214;-79
2024/01/24 09:14:45;;;;;;;27.63;5.60;;;12.10;99.90;;;;;;5044743;28;20180;-79
2024/01/24 09:17:12;;;;;;;28.13;5.73;;;12.10;1.00;;;;;;5036856;28;20199;-79
2024/01/24 09:19:40;;;;;;;27.17;5.67;;;12.00;1.00;;;;;;5034626;28;20648;-80
2024/01/24 09:22:05;;;;;;;31.40;5.63;;;11.90;1.00;;;;;;5035522;28;20188;-80
2024/01/24 09:24:31;;;;;;;24.13;6.27;;;12.00;1.00;;;;;;5036510;28;20671;-79
2024/01/24 09:26:56;;;;;;;25.87;5.60;;;12.00;1.00;;;;;;5036649;28;20179;-79
2024/01/24 09:29:22;;;;;;;29.00;6.57;;;12.00;1.00;;;;;;5036297;28;20177;-79
2024/01/24 09:31:48;;;;;;;32.27;6.80;;;12.00;1.00;;;;;;5036102;28;20271;-79
2024/01/24 09:34:14;;;;;;;32.60;5.90;;;11.90;1.00;;;;;;5036009;28;20564;-80
2024/01/24 09:36:40;;;;;;;32.10;6.87;;;11.90;1.00;;;;;;5034965;28;20243;-79
2024/01/24 09:39:07;;;;;;;40.70;8.93;;;11.90;1.00;;;;;;5036413;28;20172;-80
2024/01/24 09:41:42;;;;;;;23.50;5.47;;;11.90;1.00;;;;;;5035317;28;20196;-79
2024/01/24 09:44:08;;;;;;;29.30;5.73;;;12.00;1.00;;;;;;5038739;28;20218;-79
2024/01/24 09:46:37;;;;;;;24.43;6.10;;;12.00;1.00;;;;;;5035843;28;20180;-80
2024/01/24 09:49:04;;;;;;;38.17;6.80;;;12.00;1.00;;;;;;5034681;28;20175;-79
2024/01/24 09:51:33;;;;;;;28.03;5.80;;;12.00;1.00;;;;;;5034660;28;20238;-79
2024/01/24 09:54:03;;;;;;;25.97;5.57;;;12.00;1.00;;;;;;5033367;28;20172;-79
2024/01/24 09:56:31;;;;;;;29.83;6.27;;;12.00;1.00;;;;;;5033391;28;20193;-80
2024/01/24 09:58:57;;;;;;;31.33;6.23;;;12.00;1.00;;;;;;5036674;28;20198;-80
2024/01/24 10:01:24;;;;;;;32.67;6.63;;;12.10;1.00;;;;;;5035730;28;20262;-80
2024/01/24 10:03:52;;;;;;;33.23;6.67;;;12.00;1.00;;;;;;5035935;28;20541;-79
2024/01/24 10:06:17;;;;;;;24.80;6.47;;;12.00;1.00;;;;;;5035074;28;20261;-79
2024/01/24 10:08:43;;;;;;;32.07;6.80;;;12.00;1.00;;;;;;5036501;28;20175;-80
2024/01/24 10:11:09;;;;;;;31.33;6.97;;;12.00;1.00;;;;;;5036807;28;20196;-80
2024/01/24 10:13:37;;;;;;;28.37;6.43;;;12.00;1.00;;;;;;5034772;28;20176;-80
2024/01/24 10:16:05;;;;;;;31.73;6.53;;;12.00;1.00;;;;;;5035544;28;20168;-79
2024/01/24 10:18:31;;;;;;;32.40;6.67;;;12.00;1.00;;;;;;5035511;28;20172;-80
2024/01/24 10:20:58;;;;;;;32.97;6.30;;;12.00;1.00;;;;;;5035707;28;20291;-79
2024/01/24 10:23:23;;;;;;;32.30;5.93;;;11.90;1.00;;;;;;5035332;28;20194;-79
2024/01/24 10:25:50;;;;;;;31.40;6.90;;;12.00;1.00;;;;;;5035938;28;20176;-80
2024/01/24 10:28:16;;;;;;;28.07;5.57;;;12.00;1.00;;;;;;5035311;28;20172;-80
2024/01/24 10:30:43;;;;;;;30.83;6.97;;;12.00;1.00;;;;;;5034590;28;20327;-79
2024/01/24 10:33:12;;;;;;;28.60;6.93;;;12.00;1.00;;;;;;5035504;28;20188;-79
2024/01/24 10:35:42;;;;;;;30.87;5.53;;;12.00;1.00;;;;;;5033320;28;20582;-79
2024/01/24 10:38:12;;;;;;;28.43;6.53;;;12.00;1.00;;;;;;5035657;28;20185;-80
2024/01/24 10:40:39;;;;;;;28.00;6.27;;;12.00;1.00;;;;;;5033575;28;20246;-78
2024/01/24 10:43:11;;;;;;;25.20;6.07;;;12.00;1.00;;;;;;5038548;28;20168;-79
2024/01/24 10:45:41;;;;;;;29.27;6.70;;;12.00;1.00;;;;;;5039126;28;20164;-78
2024/01/24 10:48:08;;;;;;;36.20;7.10;;;12.00;1.00;;;;;;5036525;28;20187;-79
2024/01/24 10:50:35;;;;;;;28.87;5.50;;;12.00;1.00;;;;;;5036618;28;20196;-79
2024/01/24 10:53:02;;;;;;;30.27;6.27;;;12.10;1.00;;;;;;5036763;28;20199;-79
2024/01/24 10:55:29;;;;;;;32.70;5.87;;;12.00;1.00;;;;;;5038421;28;20256;-79
2024/01/24 10:57:56;;;;;;;27.77;6.03;;;12.00;1.00;;;;;;5038216;28;20183;-79
2024/01/24 11:00:22;;;;;;;29.50;5.67;;;12.10;1.00;;;;;;5036131;28;20227;-79
2024/01/24 11:02:49;;;;;;;30.77;6.67;;;12.10;1.00;;;;;;5038380;28;20160;-79
2024/01/24 11:05:43;;;;;;;29.90;6.57;;;12.10;1.00;;;;;;5037318;28;20175;-78
2024/01/24 11:08:24;;;;;;;36.30;6.00;;;12.10;1.00;;;;;;5039881;28;20736;-80
2024/01/24 11:10:55;;;;;;;26.83;6.17;;;12.10;1.00;;;;;;5041810;28;20544;-79
2024/01/24 11:13:23;;;;;;;26.93;5.63;;;12.20;1.00;;;;;;5043465;28;20153;-79
2024/01/24 11:15:49;;;;;;;28.63;6.43;;;12.20;1.00;;;;;;5042263;28;20169;-80
2024/01/24 11:18:21;;;;;;;27.87;6.10;;;12.20;1.00;;;;;;5043795;28;20283;-80
2024/01/24 11:20:52;;;;;;;38.93;7.57;;;12.20;1.00;;;;;;5043509;28;20544;-79
2024/01/24 11:23:44;;;;;;;27.63;6.10;;;12.20;1.00;;;;;;5043157;28;20171;-81
2024/01/24 11:26:30;;;;;;;23.97;5.53;;;12.20;1.00;;;;;;5043315;28;20157;-80
2024/01/24 11:29:05;;;;;;;30.80;6.70;;;12.10;1.00;;;;;;5038667;28;20231;-80
2024/01/24 11:31:39;;;;;;;32.23;6.97;;;12.10;1.00;;;;;;5041890;28;20196;-80
2024/01/24 11:34:08;;;;;;;24.30;5.90;;;12.10;1.00;;;;;;5043121;28;20221;-80
2024/01/24 11:36:47;;;;;;;27.43;6.23;;;12.00;1.00;;;;;;5045193;28;20196;-80
2024/01/24 11:39:37;;;;;;;27.67;6.37;;;12.10;1.00;;;;;;5041834;28;20180;-80
2024/01/24 11:42:33;;;;;;;30.63;6.27;;;12.10;1.00;;;;;;5040693;28;20694;-81
2024/01/24 11:45:17;;;;;;;27.47;6.00;;;12.10;1.00;;;;;;5041314;28;20181;-80
2024/01/24 11:47:44;;;;;;;30.07;6.33;;;12.00;1.00;;;;;;5039458;28;20176;-81
2024/01/24 11:50:11;;;;;;;24.10;5.57;;;12.00;1.00;;;;;;5040983;28;20176;-81
2024/01/24 11:52:36;;;;;;;31.67;6.93;;;12.00;1.00;;;;;;5041981;28;20186;-81
2024/01/24 11:55:02;;;;;;;30.67;6.03;;;12.00;1.00;;;;;;5046817;28;20264;-81
2024/01/24 11:57:29;;;;;;;29.17;6.30;;;12.00;1.00;;;;;;5042152;28;20211;-81
2024/01/24 11:59:55;;;;;;;24.43;5.70;;;12.00;1.00;;;;;;5037926;28;20177;-81
2024/01/24 12:02:23;;;;;;;29.37;6.77;;;12.00;1.00;;;;;;5038975;28;20172;-80
2024/01/24 12:04:50;;;;;;;30.57;6.53;;;12.10;1.00;;;;;;5038368;28;20176;-81
2024/01/24 12:07:16;;;;;;;26.90;7.40;;;12.00;1.00;;;;;;5039853;28;20187;-79
2024/01/24 12:09:41;;;;;;;25.13;6.00;;;12.00;99.90;;;;;;5039626;28;20176;-81
2024/01/24 12:12:10;;;;;;;29.13;6.77;;;12.00;99.90;;;;;;5037901;28;20196;-81
2024/01/24 12:14:36;;;;;;;22.13;4.77;;;12.10;99.90;;;;;;5038673;28;20180;-80
2024/01/24 12:17:02;;;;;;;28.47;6.27;;;12.10;99.90;;;;;;5038605;28;20249;-80
2024/01/24 12:19:29;;;;;;;23.43;5.03;;;12.10;1.00;;;;;;5038467;28;20172;-81
2024/01/24 12:21:55;;;;;;;25.53;6.13;;;12.00;1.00;;;;;;5037464;28;20192;-80
2024/01/24 12:24:21;;;;;;;27.40;6.30;;;12.00;1.00;;;;;;5039540;28;20172;-80
2024/01/24 12:26:47;;;;;;;25.83;5.63;;;12.00;99.90;;;;;;5037707;28;20268;-81
2024/01/24 12:29:13;;;;;;;30.47;6.77;;;12.10;1.00;;;;;;5038017;28;20636;-80
2024/01/24 12:31:40;;;;;;;28.00;5.93;;;12.10;99.90;;;;;;5038295;28;20310;-81
2024/01/24 12:34:08;;;;;;;29.83;5.63;;;12.10;1.00;;;;;;5038622;28;20530;-81
2024/01/24 12:36:34;;;;;;;26.90;6.23;;;12.10;1.00;;;;;;5037620;28;20564;-81
2024/01/24 12:38:59;;;;;;;27.47;6.07;;;12.10;1.00;;;;;;5038587;28;20168;-80